Time;durP1;ratioP1;P1;durP2;ratioP2;P2;SDS_P1;SDS_P2;PMS_P1;PMS_P2;Temp;Humidity;BMP_temperature;BMP_pressure;BME280_temperature;BME280_humidity;BME280_pressure;Samples;Min_cycle;Max_cycle;Signal;HPM_P1;HPM_P2
2022/11/10 00:00:04;;;;;;;1.08;0.70;;;;;;;23.69;43.82;99607.91;5121945;27;20457;-77
2022/11/10 00:02:30;;;;;;;1.10;0.77;;;;;;;23.75;43.71;99611.94;5117874;28;20066;-53
2022/11/10 00:04:56;;;;;;;0.75;0.63;;;;;;;23.77;43.39;99612.34;5115537;28;20402;-76
2022/11/10 00:07:26;;;;;;;1.10;0.73;;;;;;;23.78;43.28;99613.94;5117160;28;20414;-54
2022/11/10 00:09:52;;;;;;;1.23;0.80;;;;;;;23.79;43.46;99609.97;5117087;27;20039;-77
2022/11/10 00:12:18;;;;;;;0.82;0.70;;;;;;;23.76;43.40;99612.72;5111689;27;20040;-53
2022/11/10 00:17:28;;;;;;;0.70;0.60;;;;;;;23.70;43.60;99611.50;5117526;28;20404;-76
2022/11/10 00:19:53;;;;;;;0.77;0.65;;;;;;;23.68;43.50;99619.47;5117257;28;20035;-77
2022/11/10 00:22:19;;;;;;;0.82;0.60;;;;;;;23.68;43.56;99622.25;5119796;28;20560;-53
2022/11/10 00:24:44;;;;;;;0.98;0.75;;;;;;;23.63;43.75;99611.44;5115464;28;20091;-76
2022/11/10 00:27:10;;;;;;;1.27;0.77;;;;;;;23.64;43.57;99622.22;5118339;28;20044;-77
2022/11/10 00:29:35;;;;;;;1.00;0.80;;;;;;;23.64;43.75;99627.00;5114687;28;20052;-54
2022/11/10 00:32:01;;;;;;;1.45;0.90;;;;;;;23.62;43.78;99624.59;5093865;28;20134;-53
2022/11/10 00:34:26;;;;;;;1.65;0.90;;;;;;;23.63;43.64;99629.00;5125371;28;20081;-78
2022/11/10 00:36:51;;;;;;;0.88;0.63;;;;;;;23.63;43.66;99634.59;5122450;27;20122;-55
2022/11/10 00:39:17;;;;;;;1.02;0.80;;;;;;;23.61;43.61;99629.41;5121657;27;20055;-76
2022/11/10 00:41:42;;;;;;;0.90;0.70;;;;;;;23.61;43.74;99631.38;5129095;28;20047;-78
2022/11/10 00:44:08;;;;;;;1.20;0.80;;;;;;;23.60;43.44;99632.56;5122358;28;20127;-54
2022/11/10 00:46:33;;;;;;;1.25;0.90;;;;;;;23.58;43.73;99627.38;5117814;28;20047;-77
2022/11/10 00:48:58;;;;;;;1.15;0.70;;;;;;;23.58;43.59;99626.56;5133476;28;20043;-54
2022/11/10 00:51:26;;;;;;;0.77;0.65;;;;;;;23.58;43.60;99637.72;5128378;28;20069;-76
2022/11/10 00:53:52;;;;;;;0.90;0.50;;;;;;;23.57;43.52;99636.09;5131713;28;20555;-55
2022/11/10 00:56:18;;;;;;;0.70;0.63;;;;;;;23.57;43.47;99639.69;5127533;28;20040;-77
2022/11/10 00:58:44;;;;;;;1.00;0.70;;;;;;;23.56;43.57;99642.88;5116112;28;20419;-77
2022/11/10 01:01:10;;;;;;;0.70;0.52;;;;;;;23.54;43.63;99643.28;5124194;28;20042;-54
2022/11/10 01:03:36;;;;;;;1.00;0.70;;;;;;;23.57;43.39;99655.66;5122881;28;20435;-55
2022/11/10 01:06:06;;;;;;;1.25;0.85;;;;;;;23.55;43.53;99656.03;5124865;27;20046;-56
2022/11/10 01:08:31;;;;;;;1.00;0.77;;;;;;;23.54;43.47;99654.44;5127431;28;20036;-53
2022/11/10 01:11:09;;;;;;;1.42;0.88;;;;;;;23.54;43.48;99659.22;5102014;28;20043;-77
2022/11/10 01:13:35;;;;;;;0.95;0.70;;;;;;;23.56;43.29;99668.00;5125055;28;20050;-54
2022/11/10 01:16:21;;;;;;;0.93;0.63;;;;;;;23.54;43.49;99676.78;5129940;27;20050;-54
2022/11/10 01:19:00;;;;;;;0.80;0.60;;;;;;;23.54;43.41;99675.97;5126314;27;20035;-77
2022/11/10 01:21:28;;;;;;;0.98;0.70;;;;;;;23.53;43.28;99679.97;5118275;28;20047;-53
2022/11/10 01:23:53;;;;;;;1.55;0.80;;;;;;;23.53;43.37;99683.56;5120087;27;20073;-53
2022/11/10 01:26:19;;;;;;;2.00;0.93;;;;;;;23.51;43.38;99679.56;5123687;28;20086;-53
2022/11/10 01:28:45;;;;;;;0.63;0.60;;;;;;;23.51;43.49;99682.34;5122117;27;20130;-55
2022/11/10 01:31:18;;;;;;;0.70;0.57;;;;;;;23.52;43.40;99692.31;5101055;28;20110;-78
2022/11/10 01:33:43;;;;;;;;;;;;;;;23.57;43.37;99684.38;5119353;28;20035;-54
2022/11/10 01:36:10;;;;;;;0.77;0.50;;;;;;;23.55;43.30;99688.75;5116092;28;19915;-75
2022/11/10 01:38:37;;;;;;;1.02;0.70;;;;;;;23.51;43.36;99680.38;5116517;28;20040;-78
2022/11/10 01:41:05;;;;;;;0.60;0.60;;;;;;;23.51;43.39;99685.16;5113974;28;20168;-55
2022/11/10 01:43:31;;;;;;;1.40;0.65;;;;;;;23.48;43.36;99683.91;5095672;28;20039;-54
2022/11/10 01:46:03;;;;;;;0.70;0.60;;;;;;;23.49;43.30;99690.28;5112549;28;20043;-54
2022/11/10 01:48:53;;;;;;;1.83;0.60;;;;;;;23.57;43.38;99694.75;5120137;28;20545;-75
2022/11/10 01:51:26;;;;;;;1.13;0.73;;;;;;;23.65;43.33;99690.03;5099871;28;20086;-55
2022/11/10 01:54:07;;;;;;;0.50;0.50;;;;;;;23.70;42.86;99695.28;5097856;28;20130;-56
2022/11/10 01:56:37;;;;;;;1.00;0.73;;;;;;;23.72;43.06;99693.72;5118164;27;20062;-76
2022/11/10 01:59:08;;;;;;;1.13;0.70;;;;;;;23.69;42.98;99688.09;5125221;28;20061;-53
2022/11/10 02:01:33;;;;;;;0.68;0.57;;;;;;;23.67;43.00;99684.91;5126562;27;20054;-77
2022/11/10 02:04:02;;;;;;;1.13;0.85;;;;;;;23.65;43.04;99690.03;5116625;28;20035;-53
2022/11/10 02:06:32;;;;;;;0.70;0.60;;;;;;;23.61;43.17;99681.66;5124171;28;20614;-76
2022/11/10 02:08:58;;;;;;;0.82;0.68;;;;;;;23.59;43.25;99686.81;5119099;28;20117;-54
2022/11/10 02:11:25;;;;;;;1.25;0.68;;;;;;;23.59;42.88;99686.81;5123351;27;20130;-81
2022/11/10 02:13:52;;;;;;;1.00;0.70;;;;;;;23.57;43.33;99691.94;5115529;28;20035;-77
2022/11/10 02:16:18;;;;;;;0.75;0.60;;;;;;;23.55;43.17;99685.97;5127071;27;20048;-79
2022/11/10 02:18:43;;;;;;;0.77;0.68;;;;;;;23.55;43.27;99686.75;5117631;28;20418;-55
2022/11/10 02:21:09;;;;;;;0.93;0.70;;;;;;;23.54;43.19;99690.75;5113741;28;20080;-77
2022/11/10 02:23:35;;;;;;;0.95;0.77;;;;;;;23.56;42.98;99690.34;5122799;28;20581;-77
2022/11/10 02:26:02;;;;;;;0.98;0.70;;;;;;;23.54;43.00;99689.94;5114125;27;20052;-78
2022/11/10 02:28:32;;;;;;;1.10;0.70;;;;;;;23.51;43.07;99697.13;5118950;28;20095;-78
2022/11/10 02:30:58;;;;;;;2.45;0.60;;;;;;;23.50;43.07;99689.91;5129890;27;20043;-55
2022/11/10 02:33:23;;;;;;;1.08;0.77;;;;;;;23.51;42.97;99694.31;5117768;28;20046;-54
2022/11/10 02:35:48;;;;;;;0.80;0.60;;;;;;;23.52;43.01;99698.72;5115116;28;20116;-78
2022/11/10 02:38:14;;;;;;;0.85;0.60;;;;;;;23.51;42.91;99710.28;5130255;28;20055;-78
2022/11/10 02:40:39;;;;;;;0.63;0.52;;;;;;;23.50;43.04;99714.22;5121103;28;20107;-55
2022/11/10 02:43:08;;;;;;;0.60;0.60;;;;;;;23.48;43.05;99708.22;5125824;28;20468;-78
2022/11/10 02:45:34;;;;;;;0.70;0.50;;;;;;;23.47;42.94;99707.44;5130761;27;20043;-76
2022/11/10 02:47:59;;;;;;;0.70;0.60;;;;;;;23.50;42.90;99708.66;5122072;27;20095;-55
2022/11/10 02:50:25;;;;;;;1.33;0.70;;;;;;;23.48;42.91;99713.81;5118582;28;20126;-76
2022/11/10 02:52:50;;;;;;;1.00;0.60;;;;;;;23.47;42.83;99715.81;5115024;28;20087;-55
2022/11/10 02:55:15;;;;;;;1.13;0.70;;;;;;;23.49;42.79;99716.22;5126384;28;20115;-53
2022/11/10 02:57:41;;;;;;;0.55;0.47;;;;;;;23.48;42.74;99714.63;5130392;28;20031;-75
2022/11/10 03:00:07;;;;;;;0.85;0.63;;;;;;;23.48;42.76;99714.63;5115796;27;20401;-77
2022/11/10 03:02:32;;;;;;;0.60;0.50;;;;;;;23.46;42.71;99717.00;5112657;28;20051;-55
2022/11/10 03:04:58;;;;;;;0.80;0.50;;;;;;;23.47;42.63;99717.81;5110063;28;20411;-55
2022/11/10 03:07:23;;;;;;;0.73;0.52;;;;;;;23.48;42.63;99725.00;5111598;28;20055;-54
2022/11/10 03:09:49;;;;;;;0.70;0.60;;;;;;;23.47;42.63;99717.81;5122892;27;20039;-53
2022/11/10 03:12:15;;;;;;;0.80;0.50;;;;;;;23.47;42.60;99728.97;5117729;28;20463;-54
2022/11/10 03:14:40;;;;;;;0.73;0.50;;;;;;;23.46;42.58;99725.38;5100038;28;20059;-53
2022/11/10 03:17:06;;;;;;;0.65;0.50;;;;;;;23.45;42.69;99717.41;5124529;27;20457;-53
2022/11/10 03:19:31;;;;;;;0.88;0.68;;;;;;;23.45;42.56;99729.34;5112682;28;20042;-52
2022/11/10 03:21:56;;;;;;;0.82;0.60;;;;;;;23.45;42.62;99723.78;5111080;28;20500;-77
2022/11/10 03:24:22;;;;;;;0.75;0.60;;;;;;;23.45;42.62;99720.19;5115963;28;20118;-53
2022/11/10 03:26:47;;;;;;;1.42;0.70;;;;;;;23.43;42.57;99720.56;5112902;27;20065;-55
2022/11/10 03:29:13;;;;;;;0.60;0.55;;;;;;;23.50;42.49;99723.41;5111852;28;20047;-55
2022/11/10 03:31:38;;;;;;;0.88;0.60;;;;;;;23.57;42.58;99723.47;5113207;28;20123;-78
2022/11/10 03:34:03;;;;;;;0.63;0.55;;;;;;;23.64;42.21;99731.13;5127098;28;20052;-78
2022/11/10 03:36:29;;;;;;;0.85;0.40;;;;;;;23.67;42.03;99735.16;5108013;28;20112;-76
2022/11/10 03:38:55;;;;;;;0.77;0.50;;;;;;;23.68;42.08;99739.56;5115453;27;20046;-78
2022/11/10 03:41:21;;;;;;;0.60;0.43;;;;;;;23.64;42.12;99738.72;5125169;27;20052;-75
2022/11/10 03:43:47;;;;;;;0.50;0.40;;;;;;;23.61;42.13;99746.69;5114885;27;20125;-53
2022/11/10 03:46:13;;;;;;;0.50;0.50;;;;;;;23.57;42.08;99745.81;5117448;27;20050;-77
2022/11/10 03:48:38;;;;;;;1.15;0.63;;;;;;;23.55;42.37;99742.59;5111210;28;20043;-78
2022/11/10 03:51:03;;;;;;;0.60;0.50;;;;;;;23.56;42.22;99752.56;5110236;28;20420;-77
2022/11/10 03:53:29;;;;;;;0.52;0.50;;;;;;;23.53;42.32;99747.78;5113282;28;20049;-55
2022/11/10 03:55:54;;;;;;;1.08;0.65;;;;;;;23.51;42.29;99750.16;5119585;28;20127;-78
2022/11/10 03:58:19;;;;;;;0.90;0.60;;;;;;;23.50;42.17;99756.91;5126086;28;20460;-53
2022/11/10 04:00:45;;;;;;;0.70;0.60;;;;;;;23.48;42.18;99752.91;5122176;27;20027;-54
2022/11/10 04:03:10;;;;;;;0.95;0.60;;;;;;;23.46;42.38;99760.88;5124062;27;20510;-78
2022/11/10 04:11:04;;;;;;;0.73;0.60;;;;;;;23.45;42.27;99765.66;5115073;28;20518;-54
2022/11/10 04:16:13;;;;;;;0.70;0.50;;;;;;;23.46;42.17;99767.25;5115927;28;20078;-55
2022/11/10 04:18:38;;;;;;;0.70;0.60;;;;;;;23.46;42.19;99774.81;5115124;28;20115;-76
2022/11/10 04:21:04;;;;;;;0.77;0.50;;;;;;;23.44;42.26;99764.06;5119353;27;20040;-78
2022/11/10 04:23:34;;;;;;;0.90;0.60;;;;;;;23.41;42.24;99764.81;5110365;28;20576;-53
2022/11/10 04:28:46;;;;;;;0.60;0.50;;;;;;;23.43;42.25;99767.22;5117859;28;20059;-73
2022/11/10 04:31:12;;;;;;;0.70;0.50;;;;;;;23.43;42.33;99770.00;5112818;28;20048;-76
2022/11/10 04:33:38;;;;;;;0.80;0.60;;;;;;;23.42;42.32;99777.56;5118767;28;20122;-55
2022/11/10 04:36:04;;;;;;;0.70;0.60;;;;;;;23.41;42.38;99775.16;5118181;28;20043;-75
2022/11/10 04:38:30;;;;;;;0.60;0.52;;;;;;;23.41;42.36;99778.75;5109246;28;20545;-54
2022/11/10 04:40:55;;;;;;;0.85;0.60;;;;;;;23.41;42.32;99781.56;5113488;28;20487;-77
2022/11/10 04:43:21;;;;;;;0.52;0.50;;;;;;;23.42;42.38;99783.16;5109380;28;20047;-54
2022/11/10 04:45:46;;;;;;;0.70;0.52;;;;;;;23.40;42.22;99785.53;5109521;28;20517;-55
2022/11/10 04:48:11;;;;;;;0.50;0.40;;;;;;;23.40;42.26;99784.72;5126924;28;20054;-77
2022/11/10 04:50:37;;;;;;;0.50;0.50;;;;;;;23.40;42.34;99791.13;5113172;28;20031;-54
2022/11/10 04:53:02;;;;;;;0.45;0.45;;;;;;;23.39;42.05;99783.13;5116314;28;20051;-55
2022/11/10 04:55:28;;;;;;;0.70;0.60;;;;;;;23.37;42.39;99789.09;5115327;28;20123;-76
2022/11/10 04:57:53;;;;;;;0.47;0.40;;;;;;;23.37;42.39;99794.69;5113522;28;20031;-77
2022/11/10 05:00:18;;;;;;;0.82;0.60;;;;;;;23.36;42.41;99795.88;5118166;27;20487;-78
2022/11/10 05:02:44;;;;;;;0.63;0.43;;;;;;;23.39;42.40;99794.31;5116372;28;20048;-77
2022/11/10 05:05:10;;;;;;;0.30;0.30;;;;;;;23.40;42.45;99795.91;5120733;27;20043;-53
2022/11/10 05:07:36;;;;;;;0.57;0.50;;;;;;;23.39;42.41;99799.88;5112261;28;20459;-76
2022/11/10 05:10:01;;;;;;;0.60;0.50;;;;;;;23.39;42.38;99797.09;5111081;27;20052;-77
2022/11/10 05:12:26;;;;;;;0.60;0.45;;;;;;;23.49;42.21;99801.97;5122841;27;20039;-77
2022/11/10 05:14:52;;;;;;;0.40;0.35;;;;;;;23.58;42.18;99808.06;5119436;27;20051;-77
2022/11/10 05:17:17;;;;;;;1.10;0.50;;;;;;;23.64;41.90;99811.31;5122697;27;20039;-76
2022/11/10 05:19:43;;;;;;;0.65;0.50;;;;;;;23.65;41.86;99812.91;5122117;28;20044;-77
2022/11/10 05:22:08;;;;;;;0.50;0.40;;;;;;;23.59;41.86;99810.47;5126275;27;20134;-53
2022/11/10 05:24:33;;;;;;;0.50;0.40;;;;;;;23.58;41.52;99820.03;5129451;28;20112;-54
2022/11/10 05:26:59;;;;;;;0.70;0.50;;;;;;;23.55;41.90;99817.19;5128272;27;20035;-78
2022/11/10 05:29:24;;;;;;;0.40;0.40;;;;;;;23.51;42.05;99819.16;5112241;28;20141;-75
2022/11/10 05:31:49;;;;;;;0.43;0.43;;;;;;;23.50;42.04;99823.13;5103029;28;20043;-55
2022/11/10 05:34:15;;;;;;;0.43;0.43;;;;;;;23.47;42.15;99821.91;5120134;28;20035;-75
2022/11/10 05:36:41;;;;;;;0.70;0.50;;;;;;;23.43;42.14;99829.47;5114986;28;20105;-54
2022/11/10 05:39:06;;;;;;;0.55;0.50;;;;;;;23.43;42.10;99821.06;5122281;27;20108;-53
2022/11/10 05:41:31;;;;;;;0.90;0.60;;;;;;;23.43;42.29;99825.84;5122121;28;20043;-77
2022/11/10 05:43:57;;;;;;;0.65;0.50;;;;;;;23.44;42.13;99830.25;5122159;27;20388;-76
2022/11/10 05:46:22;;;;;;;0.52;0.50;;;;;;;23.43;42.22;99829.47;5118365;28;20084;-54
2022/11/10 05:48:47;;;;;;;0.95;0.40;;;;;;;23.43;42.21;99834.22;5120022;27;20407;-76
2022/11/10 05:51:13;;;;;;;0.40;0.40;;;;;;;23.42;42.21;99838.19;5116216;28;20047;-54
2022/11/10 05:53:38;;;;;;;0.70;0.50;;;;;;;23.41;42.27;99842.97;5114071;28;20051;-77
2022/11/10 05:56:04;;;;;;;0.73;0.50;;;;;;;23.40;42.29;99846.94;5115684;28;20033;-78
2022/11/10 05:58:29;;;;;;;0.70;0.60;;;;;;;23.39;42.22;99845.34;5125806;28;20043;-53
2022/11/10 06:00:55;;;;;;;0.40;0.40;;;;;;;23.42;42.30;99855.75;5116743;28;20040;-55
2022/11/10 06:03:20;;;;;;;0.55;0.50;;;;;;;23.40;42.20;99846.94;5113336;28;20419;-76
2022/11/10 06:05:46;;;;;;;0.32;0.32;;;;;;;23.43;42.25;99854.59;5125454;27;20101;-54
2022/11/10 06:08:12;;;;;;;0.85;0.50;;;;;;;23.42;42.24;99855.75;5120624;28;20035;-55
2022/11/10 06:10:38;;;;;;;0.80;0.60;;;;;;;23.46;42.28;99864.97;5119038;28;20047;-65
2022/11/10 06:13:03;;;;;;;0.70;0.60;;;;;;;23.48;41.89;99859.00;5113791;28;20046;-78
2022/11/10 06:15:29;;;;;;;0.63;0.45;;;;;;;23.46;42.15;99870.56;5122520;28;20035;-78
2022/11/10 06:17:55;;;;;;;0.50;0.50;;;;;;;23.46;42.21;99867.75;5125682;27;20394;-53
2022/11/10 06:20:21;;;;;;;0.65;0.50;;;;;;;23.46;42.17;99859.38;5129589;27;20066;-54
2022/11/10 06:23:01;;;;;;;1.88;0.73;;;;;;;23.48;42.05;99862.59;5116608;28;20050;-78
2022/11/10 06:25:28;;;;;;;0.88;0.57;;;;;;;23.49;42.11;99863.41;5118536;28;20126;-54
2022/11/10 06:27:54;;;;;;;1.27;0.50;;;;;;;23.51;42.08;99864.63;5117818;28;20188;-54
2022/11/10 06:30:19;;;;;;;0.45;0.45;;;;;;;23.50;41.95;99865.78;5119874;27;20110;-53
2022/11/10 06:32:45;;;;;;;0.70;0.50;;;;;;;23.53;42.11;99872.63;5130749;28;20449;-54
2022/11/10 06:35:10;;;;;;;0.95;0.50;;;;;;;23.51;41.92;99875.81;5128375;28;20039;-79
2022/11/10 06:37:37;;;;;;;1.85;0.60;;;;;;;23.53;41.94;99867.84;5117294;28;20040;-54
2022/11/10 06:40:07;;;;;;;0.82;0.50;;;;;;;23.53;42.04;99879.00;5116466;28;20046;-57
2022/11/10 06:42:34;;;;;;;2.08;0.60;;;;;;;23.56;41.80;99874.63;5124031;28;20035;-78
2022/11/10 06:44:59;;;;;;;2.05;0.40;;;;;;;23.57;41.86;99890.19;5112493;27;20050;-79
2022/11/10 06:47:24;;;;;;;0.70;0.50;;;;;;;23.56;41.91;99889.41;5121784;28;20035;-81
2022/11/10 06:49:50;;;;;;;3.13;0.80;;;;;;;23.55;42.22;99890.59;5115349;28;20172;-69
2022/11/10 06:52:15;;;;;;;40.78;2.58;;;;;;;23.57;42.37;99896.59;5116984;28;20047;-56
2022/11/10 06:54:41;;;;;;;37.40;2.13;;;;;;;23.63;42.10;99904.66;5119936;27;20052;-69
2022/11/10 06:57:06;;;;;;;31.40;1.65;;;;;;;23.64;42.17;99918.25;5104833;28;20089;-56
2022/11/10 06:59:32;;;;;;;16.10;1.50;;;;;;;23.66;42.05;99910.31;5113112;27;20159;-68
2022/11/10 07:01:57;;;;;;;12.65;1.45;;;;;;;23.74;42.40;99916.78;5117549;28;20035;-57
2022/11/10 07:04:23;;;;;;;8.73;1.30;;;;;;;23.80;42.17;99921.63;5125927;27;20044;-69
2022/11/10 07:06:48;;;;;;;12.13;1.17;;;;;;;23.85;41.77;99928.84;5122207;27;20486;-56
2022/11/10 07:09:13;;;;;;;12.93;1.45;;;;;;;23.85;41.60;99934.44;5111457;28;20042;-56
2022/11/10 07:11:39;;;;;;;10.25;1.17;;;;;;;23.85;41.46;99935.22;5118896;28;20067;-56
2022/11/10 07:14:04;;;;;;;12.73;1.20;;;;;;;23.83;41.67;99934.03;5111607;28;20039;-56
2022/11/10 07:16:30;;;;;;;12.10;1.40;;;;;;;23.83;41.65;99943.19;5116123;28;20062;-56
2022/11/10 07:18:55;;;;;;;8.13;1.00;;;;;;;23.80;41.60;99943.19;5111854;28;20047;-56
2022/11/10 07:21:20;;;;;;;4.78;0.88;;;;;;;23.76;41.90;99940.31;5110103;28;20428;-57
2022/11/10 07:23:46;;;;;;;4.53;1.20;;;;;;;23.76;41.78;99948.72;5110720;28;20130;-56
2022/11/10 07:26:12;;;;;;;9.02;1.08;;;;;;;23.73;41.97;99949.50;5123554;28;20503;-57
2022/11/10 07:28:38;;;;;;;8.38;1.00;;;;;;;23.72;41.83;99958.22;5115075;27;20040;-68
2022/11/10 07:31:03;;;;;;;5.07;0.90;;;;;;;23.72;41.89;99961.03;5121169;27;20079;-69
2022/11/10 07:33:29;;;;;;;4.03;1.00;;;;;;;23.72;41.90;99964.66;5125386;27;20031;-56
2022/11/10 07:35:59;;;;;;;3.92;1.00;;;;;;;23.68;42.04;99966.56;5112844;28;20410;-67
2022/11/10 07:38:24;;;;;;;4.95;0.80;;;;;;;23.69;42.06;99956.22;5127427;27;20080;-55
2022/11/10 07:40:52;;;;;;;5.60;0.80;;;;;;;23.69;41.92;99967.38;5123436;27;20047;-55
2022/11/10 07:43:19;;;;;;;6.13;0.90;;;;;;;23.68;41.87;99971.34;5120499;28;20097;-66
2022/11/10 07:45:44;;;;;;;4.45;0.90;;;;;;;23.67;42.12;99972.53;5117558;28;20060;-69
2022/11/10 07:48:10;;;;;;;5.00;0.80;;;;;;;23.68;41.96;99982.53;5110957;27;20047;-57
2022/11/10 07:50:35;;;;;;;5.00;1.15;;;;;;;23.67;41.78;99990.09;5114031;28;20130;-57
2022/11/10 07:53:13;;;;;;;6.20;1.63;;;;;;;23.65;41.73;99998.06;5117487;28;20131;-66
2022/11/10 07:55:41;;;;;;;2.63;1.05;;;;;;;23.67;41.36;99994.91;5114214;27;20066;-56
2022/11/10 07:58:07;;;;;;;3.08;1.10;;;;;;;23.71;41.51;100001.31;5119275;27;20054;-55
2022/11/10 08:00:33;;;;;;;3.42;1.20;;;;;;;23.75;41.17;100008.56;5111821;27;20061;-55
2022/11/10 08:03:07;;;;;;;2.88;0.93;;;;;;;23.80;41.24;100018.59;5116596;28;20043;-55
2022/11/10 08:05:33;;;;;;;3.42;0.75;;;;;;;23.81;41.23;100004.25;5115151;27;20035;-66
2022/11/10 08:07:59;;;;;;;1.90;0.95;;;;;;;23.86;41.17;100011.47;5116263;27;20040;-67
2022/11/10 08:10:25;;;;;;;4.03;0.95;;;;;;;23.88;41.14;100006.31;5130528;27;20410;-55
2022/11/10 08:12:55;;;;;;;2.08;0.95;;;;;;;23.89;41.02;100011.53;5127786;27;20040;-55
2022/11/10 08:15:22;;;;;;;1.92;0.90;;;;;;;23.91;41.03;100002.75;5091707;27;20062;-65
2022/11/10 08:17:48;;;;;;;4.95;1.35;;;;;;;23.94;40.82;100001.19;5113514;28;20101;-55
2022/11/10 08:20:14;;;;;;;1.80;0.93;;;;;;;23.95;40.77;100009.19;5085307;28;20051;-56
2022/11/10 08:22:39;;;;;;;2.28;0.80;;;;;;;23.97;40.74;100003.22;5107473;27;20032;-65
2022/11/10 08:25:05;;;;;;;1.65;0.80;;;;;;;23.96;40.76;100002.41;5110130;28;20494;-65
2022/11/10 08:27:30;;;;;;;1.70;1.00;;;;;;;23.96;40.94;100005.22;5107085;28;20031;-74
2022/11/10 08:29:56;;;;;;;3.38;0.90;;;;;;;23.99;40.90;100000.84;5105250;27;21819;-69
2022/11/10 08:32:22;;;;;;;1.38;0.77;;;;;;;23.99;40.75;100004.44;5105257;27;20044;-68
2022/11/10 08:34:47;;;;;;;2.90;0.90;;;;;;;24.04;40.75;100003.31;5108642;27;20584;-67
2022/11/10 08:37:12;;;;;;;3.22;0.70;;;;;;;24.04;40.76;100006.91;5102312;27;20043;-66
2022/11/10 08:39:39;;;;;;;2.03;1.00;;;;;;;24.06;40.66;100004.50;5102946;27;20740;-56
2022/11/10 08:42:05;;;;;;;1.38;0.80;;;;;;;24.08;40.97;100015.34;5087639;27;20464;-56
2022/11/10 08:44:30;;;;;;;1.67;1.00;;;;;;;24.07;40.76;100011.72;5096144;27;20039;-54
2022/11/10 08:46:55;;;;;;;1.55;0.80;;;;;;;24.06;40.88;100010.09;5099892;28;20043;-56
2022/11/10 08:49:21;;;;;;;2.35;0.90;;;;;;;24.09;40.69;100017.75;5103741;28;20059;-56
2022/11/10 08:51:46;;;;;;;1.55;0.90;;;;;;;24.12;40.67;100024.53;5099166;27;20053;-64
2022/11/10 08:54:12;;;;;;;1.42;0.90;;;;;;;24.13;40.54;100021.38;5109474;27;20071;-55
2022/11/10 08:56:37;;;;;;;4.90;1.58;;;;;;;24.11;40.54;100025.75;5113117;28;20041;-65
2022/11/10 08:59:03;;;;;;;2.92;0.85;;;;;;;24.11;40.64;100029.34;5109581;27;20048;-56
2022/11/10 09:01:28;;;;;;;2.60;1.00;;;;;;;24.12;40.62;100025.34;5108380;28;20047;-55
2022/11/10 09:03:54;;;;;;;2.35;1.00;;;;;;;24.12;40.49;100030.94;5106736;27;20040;-55
2022/11/10 09:06:19;;;;;;;2.65;0.88;;;;;;;24.13;40.65;100026.16;5062197;28;20092;-67
2022/11/10 09:08:44;;;;;;;2.88;1.00;;;;;;;24.15;40.62;100035.78;5091167;28;20600;-56
2022/11/10 09:11:10;;;;;;;1.63;0.90;;;;;;;24.15;40.86;100026.59;5114778;28;20047;-56
2022/11/10 09:13:35;;;;;;;13.90;2.45;;;;;;;24.14;40.93;100028.56;5092725;28;20746;-58
2022/11/10 09:16:02;;;;;;;56.33;10.18;;;;;;;24.15;41.16;100035.78;5095306;28;20082;-85
2022/11/10 09:18:28;;;;;;;28.05;5.30;;;;;;;24.16;41.42;100029.00;5117163;28;20040;-57
2022/11/10 09:20:54;;;;;;;23.48;4.57;;;;;;;24.15;41.36;100032.19;5096837;28;20192;-56
2022/11/10 09:23:20;;;;;;;78.68;11.18;;;;;;;24.13;41.87;100032.53;5121704;27;20507;-55
2022/11/10 09:25:52;;;;;;;51.90;8.32;;;;;;;24.14;41.96;100045.31;5110808;27;20529;-65
2022/11/10 09:28:18;;;;;;;46.08;7.47;;;;;;;24.16;41.92;100059.75;5119594;27;20130;-62
2022/11/10 09:30:49;;;;;;;23.48;6.13;;;;;;;24.17;41.99;100064.16;5089019;28;20617;-60
2022/11/10 09:33:15;;;;;;;28.30;5.60;;;;;;;24.20;42.06;100061.75;5118648;28;20051;-54
2022/11/10 09:35:41;;;;;;;23.67;5.47;;;;;;;24.23;41.88;100061.81;5117987;27;20035;-56
2022/11/10 09:38:07;;;;;;;28.08;7.43;;;;;;;24.23;42.07;100067.41;5117448;27;20412;-57
2022/11/10 09:40:58;;;;;;;22.73;5.40;;;;;;;24.23;42.17;100072.19;5112244;27;20110;-59
2022/11/10 09:43:43;;;;;;;34.83;6.43;;;;;;;24.24;42.14;100079.41;5113939;28;20062;-61
2022/11/10 09:46:22;;;;;;;21.60;4.50;;;;;;;24.21;42.32;100086.53;5115378;27;20102;-58
2022/11/10 09:48:55;;;;;;;11.23;3.47;;;;;;;24.20;42.26;100089.72;5114555;28;20047;-57
2022/11/10 09:51:32;;;;;;;;;;;;;;;24.27;42.13;100093.41;5118748;28;20039;-64
2022/11/10 09:54:03;;;;;;;11.57;2.65;;;;;;;24.24;41.87;100090.56;5091793;27;20426;-65
2022/11/10 09:56:34;;;;;;;9.27;2.15;;;;;;;24.23;42.07;100092.56;5118303;27;20623;-66
2022/11/10 09:59:05;;;;;;;6.75;1.60;;;;;;;24.21;41.91;100096.91;5111968;28;20043;-67
2022/11/10 10:01:37;;;;;;;6.38;2.10;;;;;;;24.19;41.79;100088.91;5116976;27;20054;-66
2022/11/10 10:04:15;;;;;;;7.65;2.05;;;;;;;24.14;42.07;100087.25;5102227;27;20035;-60
2022/11/10 10:07:12;;;;;;;6.60;1.70;;;;;;;24.12;42.20;100092.44;5112443;28;20051;-68
2022/11/10 10:09:47;;;;;;;10.13;2.20;;;;;;;24.09;42.11;100089.59;5109531;27;20044;-67
2022/11/10 10:12:49;;;;;;;6.07;2.00;;;;;;;24.05;42.31;100097.13;5110340;27;20315;-57
2022/11/10 10:15:43;;;;;;;5.45;1.83;;;;;;;24.10;42.30;100103.19;5111225;27;20173;-57
2022/11/10 10:18:30;;;;;;;5.85;1.60;;;;;;;24.16;42.06;100092.47;5106745;28;20234;-57
2022/11/10 10:21:22;;;;;;;3.83;1.40;;;;;;;24.16;41.85;100087.69;5087049;27;20138;-57
2022/11/10 10:23:52;;;;;;;3.70;1.40;;;;;;;24.18;41.88;100092.91;5111716;27;20043;-65
2022/11/10 10:26:23;;;;;;;6.60;1.70;;;;;;;24.16;42.02;100100.88;5106719;27;20148;-57
2022/11/10 10:28:50;;;;;;;3.92;1.30;;;;;;;24.14;42.27;100089.25;5114824;27;20046;-57
2022/11/10 10:31:24;;;;;;;3.55;1.30;;;;;;;24.10;42.22;100086.41;5114886;27;21040;-57
2022/11/10 10:33:52;;;;;;;4.25;1.40;;;;;;;24.06;42.20;100088.34;5117494;27;20049;-66
2022/11/10 10:36:26;;;;;;;3.10;1.30;;;;;;;24.03;42.26;100093.91;5097589;27;20093;-57
2022/11/10 10:39:03;;;;;;;2.90;1.20;;;;;;;24.01;42.41;100087.91;5119406;28;20039;-57
2022/11/10 10:41:31;;;;;;;2.67;1.20;;;;;;;24.01;42.34;100099.09;5108549;27;20047;-57
2022/11/10 10:43:59;;;;;;;3.78;1.30;;;;;;;23.99;42.46;100104.22;5100857;28;20130;-65
2022/11/10 10:46:27;;;;;;;4.10;1.30;;;;;;;23.99;42.68;100113.41;5107828;28;20162;-56
2022/11/10 10:49:19;;;;;;;4.88;1.15;;;;;;;23.95;42.38;100104.19;5108193;27;20054;-64
2022/11/10 10:51:46;;;;;;;4.82;1.38;;;;;;;23.93;42.55;100109.34;5106858;27;20040;-64
2022/11/10 10:54:38;;;;;;;2.67;1.20;;;;;;;23.95;42.62;100106.19;5104505;28;20077;-57
2022/11/10 10:57:27;;;;;;;2.37;1.30;;;;;;;23.92;42.51;100113.31;5086365;28;20726;-58
2022/11/10 11:00:17;;;;;;;4.38;1.15;;;;;;;23.92;42.42;100116.13;5119369;28;20398;-65
2022/11/10 11:02:59;;;;;;;2.55;1.10;;;;;;;23.92;42.46;100116.13;5112464;28;20046;-65
2022/11/10 11:05:24;;;;;;;1.98;0.90;;;;;;;23.94;42.63;100121.34;5120073;27;20046;-65
2022/11/10 11:07:54;;;;;;;1.92;1.00;;;;;;;23.92;42.56;100118.13;5116583;27;20277;-66
2022/11/10 11:10:24;;;;;;;1.70;0.90;;;;;;;23.85;42.89;100111.25;5112859;27;20549;-65
2022/11/10 11:12:50;;;;;;;1.75;0.90;;;;;;;23.87;42.82;100119.28;5101900;27;20411;-58
2022/11/10 11:15:27;;;;;;;2.75;1.00;;;;;;;23.85;42.69;100111.25;5113133;27;20503;-66
2022/11/10 11:17:58;;;;;;;1.88;1.00;;;;;;;23.82;42.81;100112.00;5119761;28;20062;-56
2022/11/10 11:20:32;;;;;;;1.67;1.00;;;;;;;23.83;42.94;100118.41;5121023;27;20036;-63
2022/11/10 11:23:33;;;;;;;2.40;0.90;;;;;;;23.81;42.89;100112.41;5113408;27;20707;-56
2022/11/10 11:26:10;;;;;;;1.98;1.02;;;;;;;23.78;42.78;100108.34;5006261;28;20053;-63
2022/11/10 11:29:07;;;;;;;2.00;0.90;;;;;;;23.77;42.98;100105.94;5002562;28;20046;-63
2022/11/10 11:31:44;;;;;;;1.25;0.77;;;;;;;23.76;42.87;100105.13;4999971;28;20042;-64
2022/11/10 11:34:29;;;;;;;1.92;0.90;;;;;;;23.74;43.05;100104.72;4986248;28;20056;-56
2022/11/10 11:37:14;;;;;;;2.90;1.00;;;;;;;23.72;43.04;100109.06;4992863;28;20054;-64
2022/11/10 11:39:52;;;;;;;1.52;0.82;;;;;;;23.71;43.07;100101.88;4981321;28;20050;-57
2022/11/10 11:42:39;;;;;;;1.30;0.80;;;;;;;23.68;43.04;100102.63;5003952;28;20050;-65
2022/11/10 11:45:04;;;;;;;1.40;0.85;;;;;;;23.69;42.95;100101.44;4991673;28;20050;-57
2022/11/10 11:47:42;;;;;;;1.92;0.80;;;;;;;23.68;43.14;100097.03;4992921;28;20557;-64